Time;durP1;ratioP1;P1;durP2;ratioP2;P2;SDS_P1;SDS_P2;PMS_P1;PMS_P2;Temp;Humidity;BMP_temperature;BMP_pressure;BME280_temperature;BME280_humidity;BME280_pressure;Samples;Min_cycle;Max_cycle;Signal;HPM_P1;HPM_P2
2024/01/30 00:01:06;;;;;;;25.00;14.65;;;8.90;99.90;;;;;;5063118;28;20036;-76
2024/01/30 00:03:31;;;;;;;22.50;13.82;;;8.90;99.90;;;;;;5061452;28;20017;-76
2024/01/30 00:05:57;;;;;;;23.05;13.93;;;9.00;99.90;;;;;;5062641;28;20016;-76
2024/01/30 00:08:22;;;;;;;26.02;14.77;;;9.00;99.90;;;;;;5054741;28;20475;-76
2024/01/30 00:10:48;;;;;;;24.10;14.82;;;9.00;99.90;;;;;;5054677;28;20644;-76
2024/01/30 00:13:16;;;;;;;22.48;14.43;;;9.00;99.90;;;;;;5060203;28;20037;-76
2024/01/30 00:15:41;;;;;;;22.38;14.52;;;9.00;99.90;;;;;;5064094;28;20032;-76
2024/01/30 00:18:07;;;;;;;25.65;13.60;;;9.10;99.90;;;;;;5063105;28;20407;-76
2024/01/30 00:20:33;;;;;;;25.73;13.43;;;9.10;99.90;;;;;;5055749;28;20080;-76
2024/01/30 00:22:58;;;;;;;20.55;13.77;;;9.10;99.90;;;;;;5060441;28;20070;-76
2024/01/30 00:25:24;;;;;;;22.38;13.57;;;9.10;99.90;;;;;;5052021;28;20047;-76
2024/01/30 00:27:49;;;;;;;19.38;13.25;;;9.10;99.90;;;;;;5070746;28;20025;-76
2024/01/30 00:30:15;;;;;;;21.83;13.30;;;9.10;99.90;;;;;;5057887;28;20045;-76
2024/01/30 00:32:40;;;;;;;19.92;13.80;;;9.10;99.90;;;;;;5065495;28;20024;-76
2024/01/30 00:35:06;;;;;;;24.70;13.88;;;9.10;99.90;;;;;;5067783;28;20028;-76
2024/01/30 00:37:32;;;;;;;21.13;13.90;;;9.10;99.90;;;;;;5068301;28;20613;-76
2024/01/30 00:39:57;;;;;;;23.42;13.48;;;9.10;99.90;;;;;;5059172;28;20025;-76
2024/01/30 00:42:23;;;;;;;26.05;13.95;;;9.10;99.90;;;;;;5055715;28;20606;-76
2024/01/30 00:44:49;;;;;;;25.40;13.35;;;9.10;99.90;;;;;;5063351;28;20029;-76
2024/01/30 00:47:15;;;;;;;20.98;13.18;;;9.10;99.90;;;;;;5071168;28;20020;-76
2024/01/30 00:49:40;;;;;;;20.70;13.50;;;9.20;99.90;;;;;;5056792;28;20048;-76
2024/01/30 00:52:06;;;;;;;20.65;13.32;;;9.10;99.90;;;;;;5054229;28;20021;-76
2024/01/30 00:54:32;;;;;;;20.20;12.35;;;9.20;99.90;;;;;;5052505;28;20033;-76
2024/01/30 00:56:57;;;;;;;20.90;13.13;;;9.20;99.90;;;;;;5052345;28;20052;-76
2024/01/30 00:59:23;;;;;;;22.83;12.68;;;9.10;99.90;;;;;;5062556;28;20384;-76
2024/01/30 01:01:48;;;;;;;23.70;12.93;;;9.20;99.90;;;;;;5068587;28;20158;-76
2024/01/30 01:04:14;;;;;;;20.67;13.05;;;9.10;99.90;;;;;;5062054;28;20039;-76
2024/01/30 01:06:42;;;;;;;23.55;13.43;;;9.10;99.90;;;;;;5066253;28;20021;-76
2024/01/30 01:09:08;;;;;;;22.50;12.50;;;9.10;99.90;;;;;;5051971;28;20076;-76
2024/01/30 01:11:33;;;;;;;23.50;13.07;;;9.10;99.90;;;;;;5056096;28;20510;-76
2024/01/30 01:13:59;;;;;;;20.25;13.13;;;9.10;99.90;;;;;;5062594;28;20025;-75
2024/01/30 01:16:24;;;;;;;20.25;13.27;;;9.10;99.90;;;;;;5062876;28;20029;-76
2024/01/30 01:18:50;;;;;;;22.30;12.60;;;9.10;99.90;;;;;;5061589;28;20383;-76
2024/01/30 01:21:16;;;;;;;20.48;13.10;;;9.10;99.90;;;;;;5059137;28;20126;-76
2024/01/30 01:23:41;;;;;;;20.95;12.82;;;9.00;99.90;;;;;;5058205;28;20020;-76
2024/01/30 01:26:09;;;;;;;20.92;12.77;;;9.00;99.90;;;;;;5055909;28;20024;-76
2024/01/30 01:28:35;;;;;;;21.30;12.60;;;9.00;99.90;;;;;;5052724;28;20017;-76
2024/01/30 01:31:05;;;;;;;21.92;12.65;;;9.00;99.90;;;;;;5055628;28;20028;-76
2024/01/30 01:33:32;;;;;;;18.77;12.60;;;9.00;99.90;;;;;;5057692;28;20028;-76
2024/01/30 01:35:58;;;;;;;20.92;12.57;;;9.00;99.90;;;;;;5053399;28;20484;-76
2024/01/30 01:38:24;;;;;;;21.00;13.35;;;9.00;99.90;;;;;;5061422;28;20108;-76
2024/01/30 01:40:51;;;;;;;21.55;12.77;;;9.00;99.90;;;;;;5063130;28;20032;-76
2024/01/30 01:43:16;;;;;;;22.92;13.43;;;9.00;99.90;;;;;;5054277;28;20025;-76
2024/01/30 01:45:42;;;;;;;21.02;12.35;;;9.00;99.90;;;;;;5064039;28;20059;-76
2024/01/30 01:48:09;;;;;;;21.02;12.95;;;9.00;99.90;;;;;;5065612;28;20364;-76
2024/01/30 01:50:35;;;;;;;20.85;12.95;;;9.00;99.90;;;;;;5070544;28;20039;-76
2024/01/30 01:53:02;;;;;;;18.83;12.65;;;9.00;99.90;;;;;;5049915;28;20029;-76
2024/01/30 01:55:30;;;;;;;21.92;13.48;;;9.00;99.90;;;;;;5054062;28;20025;-76
2024/01/30 01:57:56;;;;;;;20.90;13.05;;;9.00;99.90;;;;;;5058455;28;20099;-76
2024/01/30 02:00:22;;;;;;;19.23;12.68;;;9.00;99.90;;;;;;5051539;28;20105;-76
2024/01/30 02:02:47;;;;;;;20.20;12.85;;;9.00;99.90;;;;;;5054126;28;20017;-76
2024/01/30 02:05:14;;;;;;;20.00;12.90;;;9.00;99.90;;;;;;5055903;28;20025;-76
2024/01/30 02:07:40;;;;;;;21.00;12.70;;;9.00;99.90;;;;;;5057827;28;20045;-76
2024/01/30 02:10:07;;;;;;;19.70;12.57;;;9.00;99.90;;;;;;5055487;28;20035;-76
2024/01/30 02:12:33;;;;;;;19.77;12.63;;;9.00;99.90;;;;;;5052631;28;20510;-76
2024/01/30 02:14:58;;;;;;;18.02;12.25;;;9.00;99.90;;;;;;5062518;28;20028;-76
2024/01/30 02:17:24;;;;;;;20.52;12.70;;;9.10;99.90;;;;;;5058292;28;20103;-76
2024/01/30 02:19:49;;;;;;;19.25;12.10;;;9.10;99.90;;;;;;5051661;28;20052;-76
2024/01/30 02:22:16;;;;;;;19.08;12.15;;;9.10;99.90;;;;;;5055247;28;20033;-76
2024/01/30 02:24:41;;;;;;;18.77;11.70;;;9.20;99.90;;;;;;5054590;28;20031;-76
2024/01/30 02:27:07;;;;;;;20.88;12.38;;;9.20;99.90;;;;;;5053631;28;20017;-76
2024/01/30 02:29:32;;;;;;;24.08;12.85;;;9.20;99.90;;;;;;5056427;28;20029;-76
2024/01/30 02:31:58;;;;;;;16.70;12.00;;;9.20;99.90;;;;;;5056312;28;20099;-76
2024/01/30 02:34:24;;;;;;;20.52;11.57;;;9.30;99.90;;;;;;5062355;28;20395;-76
2024/01/30 02:36:50;;;;;;;22.25;12.25;;;9.30;99.90;;;;;;5052231;28;20048;-76
2024/01/30 02:39:15;;;;;;;19.02;11.80;;;9.30;99.90;;;;;;5057062;28;20022;-76
2024/01/30 02:41:41;;;;;;;19.50;12.25;;;9.30;99.90;;;;;;5054481;28;20427;-76
2024/01/30 02:44:06;;;;;;;19.38;11.90;;;9.30;99.90;;;;;;5049498;28;20048;-76
2024/01/30 02:46:32;;;;;;;18.40;11.70;;;9.30;99.90;;;;;;5050646;28;20049;-77
2024/01/30 02:48:57;;;;;;;21.02;12.32;;;9.30;99.90;;;;;;5066002;28;20031;-76
2024/01/30 02:51:23;;;;;;;20.20;11.77;;;9.30;99.90;;;;;;5054064;28;20027;-76
2024/01/30 02:53:49;;;;;;;19.25;12.10;;;9.30;99.90;;;;;;5051702;28;20028;-76
2024/01/30 02:56:14;;;;;;;20.65;12.32;;;9.30;99.90;;;;;;5052870;28;20096;-77
2024/01/30 02:58:40;;;;;;;22.50;11.90;;;9.30;99.90;;;;;;5064897;28;20033;-76
2024/01/30 03:01:06;;;;;;;18.63;12.57;;;9.30;99.90;;;;;;5060001;28;20024;-76
2024/01/30 03:03:35;;;;;;;18.52;11.45;;;9.20;99.90;;;;;;5062882;28;20028;-77
2024/01/30 03:06:00;;;;;;;18.70;11.88;;;9.30;99.90;;;;;;5068097;28;20063;-77
2024/01/30 03:08:26;;;;;;;15.93;11.70;;;9.20;99.90;;;;;;5052853;28;20025;-77
2024/01/30 03:10:51;;;;;;;17.58;11.93;;;9.20;99.90;;;;;;5054333;28;20021;-76
2024/01/30 03:15:52;;;;;;;19.73;11.63;;;9.30;99.90;;;;;;3743347;22;19932;-76
2024/01/30 03:18:18;;;;;;;20.05;12.40;;;9.30;99.90;;;;;;5041623;28;20081;-75
2024/01/30 03:20:44;;;;;;;20.25;11.48;;;9.30;99.90;;;;;;5036745;28;20044;-76
2024/01/30 03:23:10;;;;;;;19.45;11.35;;;9.30;99.90;;;;;;5056304;28;20080;-76
2024/01/30 03:25:35;;;;;;;20.20;12.25;;;9.30;99.90;;;;;;5048911;28;20411;-76
2024/01/30 03:28:01;;;;;;;18.95;11.95;;;9.30;99.90;;;;;;5055761;28;20043;-76
2024/01/30 03:30:26;;;;;;;20.30;11.80;;;9.40;99.90;;;;;;5051397;28;20025;-76
2024/01/30 03:32:52;;;;;;;20.02;11.90;;;9.30;99.90;;;;;;5039100;28;20641;-76
2024/01/30 03:35:19;;;;;;;21.02;11.93;;;9.30;99.90;;;;;;5051525;28;20507;-76
2024/01/30 03:37:44;;;;;;;19.88;12.18;;;9.40;99.90;;;;;;5049434;28;20024;-76
2024/01/30 03:40:10;;;;;;;20.63;12.63;;;9.40;99.90;;;;;;5046903;28;20474;-76
2024/01/30 03:42:36;;;;;;;19.85;12.55;;;9.30;99.90;;;;;;5051424;28;20067;-76
2024/01/30 03:45:02;;;;;;;17.20;11.85;;;9.40;99.90;;;;;;5046256;28;20547;-76
2024/01/30 03:47:28;;;;;;;19.95;12.00;;;9.30;99.90;;;;;;5046201;28;20025;-76
2024/01/30 03:49:53;;;;;;;17.52;11.90;;;9.40;99.90;;;;;;5045580;28;20025;-75
2024/01/30 03:52:19;;;;;;;18.70;11.50;;;9.30;99.90;;;;;;5049516;28;20036;-76
2024/01/30 03:54:44;;;;;;;19.20;11.60;;;9.40;99.90;;;;;;5048795;28;20041;-75
2024/01/30 03:57:10;;;;;;;20.90;11.88;;;9.40;99.90;;;;;;5047956;28;20025;-75
2024/01/30 03:59:36;;;;;;;20.60;12.23;;;9.40;99.90;;;;;;5049209;28;20048;-76
2024/01/30 04:02:01;;;;;;;17.92;11.38;;;9.40;99.90;;;;;;5039909;28;20045;-76
2024/01/30 04:04:27;;;;;;;20.30;12.80;;;9.40;99.90;;;;;;5042476;28;20027;-76
2024/01/30 04:06:53;;;;;;;19.50;12.52;;;9.40;99.90;;;;;;5039549;28;20017;-76
2024/01/30 04:09:18;;;;;;;20.75;11.80;;;9.40;99.90;;;;;;5047911;28;20139;-76
2024/01/30 04:11:44;;;;;;;19.10;11.85;;;9.40;99.90;;;;;;5050616;28;20425;-75
2024/01/30 04:14:10;;;;;;;20.08;11.27;;;9.40;99.90;;;;;;5049623;28;20029;-76
2024/01/30 04:16:36;;;;;;;20.67;12.00;;;9.40;99.90;;;;;;5052181;28;20060;-75
2024/01/30 04:19:01;;;;;;;18.83;12.15;;;9.40;99.90;;;;;;5053950;28;20417;-76
2024/01/30 04:21:27;;;;;;;20.67;11.80;;;9.40;99.90;;;;;;5034555;28;20025;-76
2024/01/30 04:23:53;;;;;;;18.42;11.60;;;9.40;99.90;;;;;;5051767;28;20021;-75
2024/01/30 04:26:19;;;;;;;19.10;11.85;;;9.40;99.90;;;;;;5050261;28;20067;-75
2024/01/30 04:28:45;;;;;;;19.85;11.90;;;9.40;99.90;;;;;;5051437;28;20391;-76
2024/01/30 04:31:11;;;;;;;21.00;12.45;;;9.40;99.90;;;;;;5051888;28;20036;-75
2024/01/30 04:33:37;;;;;;;18.90;12.02;;;9.40;99.90;;;;;;5058141;28;20487;-76
2024/01/30 04:36:03;;;;;;;20.80;12.70;;;9.40;99.90;;;;;;5047291;28;20036;-75
2024/01/30 04:38:29;;;;;;;17.95;12.05;;;9.40;99.90;;;;;;5051943;28;20554;-75
2024/01/30 04:40:55;;;;;;;19.73;12.07;;;9.40;99.90;;;;;;5045775;28;20104;-75
2024/01/30 04:43:21;;;;;;;21.48;12.23;;;9.40;99.90;;;;;;5053212;28;20368;-75
2024/01/30 04:45:47;;;;;;;17.60;11.98;;;9.40;99.90;;;;;;5046589;28;20414;-75
2024/01/30 04:48:12;;;;;;;19.05;12.15;;;9.40;99.90;;;;;;5053851;28;20029;-75
2024/01/30 04:50:38;;;;;;;18.00;11.73;;;9.40;99.90;;;;;;5053843;28;20029;-75
2024/01/30 04:53:03;;;;;;;18.63;12.15;;;9.40;99.90;;;;;;5052592;28;20391;-75
2024/01/30 04:55:29;;;;;;;17.58;11.90;;;9.40;99.90;;;;;;5044182;28;20097;-75
2024/01/30 04:57:54;;;;;;;17.45;11.57;;;9.40;99.90;;;;;;5048787;28;20040;-75
2024/01/30 05:00:20;;;;;;;20.30;12.40;;;9.40;99.90;;;;;;5046047;28;20017;-75
2024/01/30 05:02:46;;;;;;;18.85;12.40;;;9.50;99.90;;;;;;5056166;28;20048;-75
2024/01/30 05:05:11;;;;;;;20.15;11.90;;;9.50;99.90;;;;;;5062901;28;20470;-75
2024/01/30 05:07:38;;;;;;;20.00;12.43;;;9.50;99.90;;;;;;5054535;28;20395;-75
2024/01/30 05:10:04;;;;;;;20.08;12.23;;;9.50;99.90;;;;;;5054413;28;20096;-75
2024/01/30 05:12:30;;;;;;;19.20;12.00;;;9.50;99.90;;;;;;5048552;28;20573;-75
2024/01/30 05:14:55;;;;;;;20.95;12.43;;;9.50;99.90;;;;;;5052601;28;20494;-75
2024/01/30 05:17:21;;;;;;;20.27;11.65;;;9.50;99.90;;;;;;5053027;28;20463;-75
2024/01/30 05:19:46;;;;;;;18.70;11.93;;;9.50;99.90;;;;;;5058755;28;20097;-75
2024/01/30 05:22:15;;;;;;;18.30;11.85;;;9.50;99.90;;;;;;5042915;28;20040;-76
2024/01/30 05:24:44;;;;;;;19.48;11.93;;;9.60;99.90;;;;;;5052933;28;20131;-76
2024/01/30 05:27:10;;;;;;;18.40;11.40;;;9.60;99.90;;;;;;5052843;28;20033;-76
2024/01/30 05:29:35;;;;;;;21.38;12.27;;;9.60;99.90;;;;;;5049126;28;20025;-76
2024/01/30 05:32:01;;;;;;;20.27;12.25;;;9.60;99.90;;;;;;5052957;28;20036;-76
2024/01/30 05:34:27;;;;;;;19.35;12.20;;;9.60;99.90;;;;;;5050219;28;20025;-76
2024/01/30 05:36:52;;;;;;;19.40;11.98;;;9.60;99.90;;;;;;5051482;28;20028;-76
2024/01/30 05:39:18;;;;;;;19.23;11.82;;;9.60;99.90;;;;;;5050045;28;20101;-75
2024/01/30 05:41:44;;;;;;;19.13;11.73;;;9.60;99.90;;;;;;5049736;28;20494;-75
2024/01/30 05:44:09;;;;;;;22.65;12.50;;;9.60;99.90;;;;;;5045587;28;20025;-76
2024/01/30 05:46:35;;;;;;;18.27;12.27;;;9.60;99.90;;;;;;5043697;28;20436;-75
2024/01/30 05:49:01;;;;;;;22.73;13.35;;;9.60;99.90;;;;;;5051964;28;20075;-75
2024/01/30 05:51:27;;;;;;;18.27;11.63;;;9.70;99.90;;;;;;5033761;28;20025;-76
2024/01/30 05:53:53;;;;;;;19.20;12.02;;;9.70;99.90;;;;;;5052794;28;20076;-75
2024/01/30 05:56:19;;;;;;;18.20;11.90;;;9.70;99.90;;;;;;5051666;28;20031;-74
2024/01/30 05:58:44;;;;;;;23.83;12.18;;;9.70;99.90;;;;;;5029432;28;20075;-75
2024/01/30 06:01:10;;;;;;;19.67;11.95;;;9.70;99.90;;;;;;5050226;28;20037;-75
2024/01/30 06:03:36;;;;;;;17.55;11.68;;;9.70;99.90;;;;;;5053873;28;20032;-75
2024/01/30 06:06:01;;;;;;;20.00;12.27;;;9.70;99.90;;;;;;5057506;28;20032;-76
2024/01/30 06:08:27;;;;;;;23.50;12.35;;;9.70;99.90;;;;;;5047660;28;20088;-76
2024/01/30 06:10:52;;;;;;;20.60;12.13;;;9.70;99.90;;;;;;5046398;28;20025;-75
2024/01/30 06:13:18;;;;;;;22.30;12.00;;;9.80;99.90;;;;;;5044132;28;20059;-76
2024/01/30 06:15:44;;;;;;;19.67;11.93;;;9.80;99.90;;;;;;5050556;28;20045;-76
2024/01/30 06:18:09;;;;;;;21.00;11.55;;;9.80;99.90;;;;;;5038522;28;20026;-75
2024/01/30 06:20:37;;;;;;;21.75;11.63;;;9.80;99.90;;;;;;5043417;28;20445;-76
2024/01/30 06:23:02;;;;;;;18.50;11.20;;;9.80;99.90;;;;;;5043488;28;20029;-76
2024/01/30 06:25:28;;;;;;;22.45;12.02;;;9.90;99.90;;;;;;5051483;28;20028;-75
2024/01/30 06:27:54;;;;;;;20.65;12.32;;;9.90;99.90;;;;;;5048225;28;20410;-75
2024/01/30 06:30:20;;;;;;;21.38;11.82;;;9.90;99.90;;;;;;5049731;28;20082;-75
2024/01/30 06:32:45;;;;;;;19.48;11.13;;;9.90;99.90;;;;;;5048985;28;20482;-76
2024/01/30 06:35:11;;;;;;;22.65;11.30;;;9.90;99.90;;;;;;5041871;28;20029;-76
2024/01/30 06:37:37;;;;;;;21.40;12.00;;;9.90;99.90;;;;;;5051019;28;20021;-75
2024/01/30 06:40:04;;;;;;;16.35;10.88;;;9.90;99.90;;;;;;5050904;28;20108;-75
2024/01/30 06:42:30;;;;;;;22.00;12.05;;;10.00;99.90;;;;;;5043672;28;20031;-75
2024/01/30 06:44:55;;;;;;;23.80;12.60;;;10.00;99.90;;;;;;5049349;28;20025;-75
2024/01/30 06:47:21;;;;;;;21.55;12.45;;;10.00;99.90;;;;;;5049895;28;20093;-75
2024/01/30 06:49:46;;;;;;;19.60;11.23;;;10.00;99.90;;;;;;5044053;28;20025;-76
2024/01/30 06:52:12;;;;;;;21.55;11.73;;;10.00;99.90;;;;;;5051919;28;20078;-76
2024/01/30 06:54:38;;;;;;;20.80;11.45;;;10.10;99.90;;;;;;5043920;28;20029;-76
2024/01/30 06:57:04;;;;;;;24.63;11.45;;;10.10;99.90;;;;;;5049270;28;20024;-76
2024/01/30 06:59:29;;;;;;;19.98;11.38;;;10.10;99.90;;;;;;5046645;28;20029;-76
2024/01/30 07:01:55;;;;;;;20.00;11.25;;;10.10;99.90;;;;;;5044938;28;20057;-76
2024/01/30 07:04:20;;;;;;;22.10;12.02;;;10.20;99.90;;;;;;5040415;28;20039;-76
2024/01/30 07:06:46;;;;;;;20.40;11.23;;;10.10;99.90;;;;;;5038550;28;20114;-76
2024/01/30 07:09:13;;;;;;;21.73;11.32;;;10.10;99.90;;;;;;5038230;28;20018;-76
2024/01/30 07:11:39;;;;;;;21.05;11.88;;;10.20;99.90;;;;;;5045851;28;20108;-76
2024/01/30 07:14:04;;;;;;;19.75;11.38;;;10.20;99.90;;;;;;5051175;28;20175;-76
2024/01/30 07:16:30;;;;;;;21.88;12.13;;;10.20;99.90;;;;;;5039492;28;20411;-76
2024/01/30 07:18:56;;;;;;;18.85;10.43;;;10.30;99.90;;;;;;5051173;28;20025;-76
2024/01/30 07:21:27;;;;;;;23.23;11.27;;;10.30;99.90;;;;;;5047324;28;20025;-76
2024/01/30 07:23:53;;;;;;;21.75;11.63;;;10.30;99.90;;;;;;5041476;28;20098;-76
2024/01/30 07:26:19;;;;;;;18.90;11.30;;;10.30;99.90;;;;;;5049134;28;20025;-76
2024/01/30 07:28:44;;;;;;;20.35;11.25;;;10.40;99.90;;;;;;5027622;28;20120;-76
2024/01/30 07:31:10;;;;;;;23.45;11.57;;;10.30;99.90;;;;;;5048349;28;20366;-75
2024/01/30 07:33:36;;;;;;;21.25;12.15;;;10.40;99.90;;;;;;5049905;28;20075;-76
2024/01/30 07:36:01;;;;;;;25.52;11.95;;;10.40;99.90;;;;;;5048704;28;20021;-76
2024/01/30 07:38:27;;;;;;;22.50;11.65;;;10.40;99.90;;;;;;5050297;28;20052;-75
2024/01/30 07:40:52;;;;;;;28.35;12.05;;;10.50;99.90;;;;;;5050739;28;20041;-76
2024/01/30 07:43:19;;;;;;;25.15;12.13;;;10.60;99.90;;;;;;5049976;28;20489;-76
2024/01/30 07:45:45;;;;;;;25.20;12.10;;;10.60;99.90;;;;;;5044838;28;20086;-76
2024/01/30 07:48:11;;;;;;;25.88;11.32;;;10.70;99.90;;;;;;5045078;28;20033;-75
2024/01/30 07:50:36;;;;;;;23.20;11.65;;;10.80;99.90;;;;;;5045010;28;20033;-76
2024/01/30 07:53:02;;;;;;;24.25;11.98;;;10.80;99.90;;;;;;5054621;28;20037;-76
2024/01/30 07:55:28;;;;;;;23.83;11.80;;;10.90;99.90;;;;;;5054259;28;20036;-76
2024/01/30 07:57:55;;;;;;;22.33;11.38;;;10.90;99.90;;;;;;5052137;28;20024;-75
2024/01/30 08:00:21;;;;;;;25.50;12.40;;;10.90;99.90;;;;;;5050467;28;20086;-76
2024/01/30 08:02:55;;;;;;;25.60;11.73;;;11.00;99.90;;;;;;5054239;28;20024;-75
2024/01/30 08:05:22;;;;;;;25.77;11.90;;;11.00;99.90;;;;;;5047322;28;20642;-75
2024/01/30 08:07:48;;;;;;;24.40;12.25;;;11.00;99.90;;;;;;5052843;28;20343;-75
2024/01/30 08:10:14;;;;;;;27.00;12.75;;;11.00;99.90;;;;;;5044642;28;20040;-75
2024/01/30 08:12:40;;;;;;;20.98;11.85;;;11.00;99.90;;;;;;5048301;28;20048;-75
2024/01/30 08:15:07;;;;;;;25.58;12.10;;;11.00;99.90;;;;;;5033085;28;20383;-75
2024/01/30 08:17:33;;;;;;;26.23;11.77;;;11.00;99.90;;;;;;5029810;28;20026;-75
2024/01/30 08:19:58;;;;;;;22.95;11.15;;;11.00;99.90;;;;;;5034494;28;20025;-75
2024/01/30 08:22:24;;;;;;;23.30;12.10;;;10.90;99.90;;;;;;5033176;28;20160;-75
2024/01/30 08:24:50;;;;;;;25.67;12.30;;;10.90;99.90;;;;;;5032551;28;20143;-75
2024/01/30 08:27:15;;;;;;;23.02;12.25;;;10.90;99.90;;;;;;5033798;28;20490;-75
2024/01/30 08:29:41;;;;;;;25.73;12.65;;;10.90;99.90;;;;;;5029547;28;20045;-75
2024/01/30 08:32:07;;;;;;;24.45;11.98;;;10.90;99.90;;;;;;5019384;28;20029;-75
2024/01/30 08:34:33;;;;;;;20.05;11.63;;;10.90;99.90;;;;;;5027576;28;20033;-75
2024/01/30 08:36:58;;;;;;;26.55;11.88;;;10.90;99.90;;;;;;5032539;28;20017;-75
2024/01/30 08:39:24;;;;;;;28.45;12.63;;;10.90;99.90;;;;;;5022953;28;20026;-75
2024/01/30 08:41:50;;;;;;;24.45;11.98;;;10.90;99.90;;;;;;5030609;28;20045;-75
2024/01/30 08:44:17;;;;;;;28.70;12.43;;;10.90;99.90;;;;;;5023617;28;20026;-75
2024/01/30 08:46:44;;;;;;;27.52;12.10;;;11.00;99.90;;;;;;5029566;28;20156;-75
2024/01/30 08:49:10;;;;;;;25.38;12.68;;;11.00;99.90;;;;;;5032919;28;20087;-74
2024/01/30 08:51:35;;;;;;;23.02;12.32;;;11.00;99.90;;;;;;5019287;28;20021;-74
2024/01/30 08:54:01;;;;;;;22.40;11.95;;;11.00;99.90;;;;;;5032824;28;20064;-74
2024/01/30 08:56:27;;;;;;;21.85;11.85;;;11.00;99.90;;;;;;5024587;28;20028;-74
2024/01/30 08:58:53;;;;;;;22.52;11.70;;;11.00;99.90;;;;;;5018141;28;20558;-74
2024/01/30 09:01:18;;;;;;;24.73;12.07;;;11.00;99.90;;;;;;5024454;28;20400;-74
2024/01/30 09:03:46;;;;;;;24.45;12.70;;;11.00;99.90;;;;;;5017490;28;20269;-74
2024/01/30 09:06:11;;;;;;;23.65;12.23;;;11.00;99.90;;;;;;5021959;28;20018;-75
2024/01/30 09:08:37;;;;;;;30.85;12.65;;;11.00;99.90;;;;;;5032938;28;20025;-74
2024/01/30 09:11:13;;;;;;;21.63;11.20;;;11.00;99.90;;;;;;5032463;28;20025;-75
2024/01/30 09:13:38;;;;;;;22.42;10.88;;;11.00;99.90;;;;;;5033424;28;20090;-74
2024/01/30 09:16:04;;;;;;;20.95;10.50;;;11.00;99.90;;;;;;5034603;28;20057;-74
2024/01/30 09:18:30;;;;;;;24.55;10.48;;;11.00;99.90;;;;;;5037891;28;20046;-74
2024/01/30 09:20:56;;;;;;;22.20;9.63;;;11.00;99.90;;;;;;5052525;28;20041;-74
2024/01/30 09:23:21;;;;;;;16.95;8.30;;;10.90;99.90;;;;;;5051626;28;20220;-74
2024/01/30 09:25:47;;;;;;;18.98;7.88;;;10.90;99.90;;;;;;5060374;28;20363;-75
2024/01/30 09:28:13;;;;;;;17.52;6.75;;;10.90;99.90;;;;;;5043374;28;20025;-75
2024/01/30 09:30:38;;;;;;;17.42;6.55;;;10.90;99.90;;;;;;5053094;28;20040;-75
2024/01/30 09:33:04;;;;;;;18.35;6.82;;;10.80;99.90;;;;;;5045181;28;20261;-75
2024/01/30 09:35:30;;;;;;;23.08;6.63;;;10.80;99.90;;;;;;5046854;28;20040;-74
2024/01/30 09:37:57;;;;;;;20.58;7.03;;;10.80;99.90;;;;;;5047057;28;20092;-75
2024/01/30 09:40:23;;;;;;;22.63;6.10;;;10.70;99.90;;;;;;5048812;28;20017;-75
2024/01/30 09:42:51;;;;;;;12.75;5.25;;;10.70;99.90;;;;;;5041433;28;20115;-74
2024/01/30 09:45:18;;;;;;;20.40;5.57;;;10.70;99.90;;;;;;5041428;28;20056;-74
2024/01/30 09:47:46;;;;;;;21.63;5.25;;;10.60;99.90;;;;;;5046565;28;20023;-74
2024/01/30 09:50:12;;;;;;;20.58;4.85;;;10.50;99.90;;;;;;5059729;28;20077;-74
2024/01/30 09:52:39;;;;;;;19.45;4.60;;;10.50;99.90;;;;;;5051056;28;20067;-74
2024/01/30 09:55:06;;;;;;;20.30;4.90;;;10.50;99.90;;;;;;5054764;28;20072;-74
2024/01/30 09:57:32;;;;;;;18.65;4.53;;;10.50;99.90;;;;;;5049261;28;20095;-74
2024/01/30 09:59:58;;;;;;;16.58;4.13;;;10.40;99.90;;;;;;5051758;28;20097;-74
2024/01/30 10:02:23;;;;;;;18.20;4.15;;;10.40;99.90;;;;;;5050627;28;20039;-74
2024/01/30 10:04:50;;;;;;;13.63;3.72;;;10.40;99.90;;;;;;5052605;28;20013;-74
2024/01/30 10:07:17;;;;;;;19.13;4.07;;;10.30;99.90;;;;;;5052698;28;20100;-74
2024/01/30 10:09:42;;;;;;;12.27;3.80;;;10.30;99.90;;;;;;5048614;28;20017;-75
2024/01/30 10:12:11;;;;;;;15.13;3.75;;;10.30;99.90;;;;;;5047018;28;20044;-75
2024/01/30 10:14:41;;;;;;;8.02;3.03;;;10.20;99.90;;;;;;5049347;28;20048;-75
2024/01/30 10:17:10;;;;;;;11.07;2.88;;;10.20;99.90;;;;;;5044782;28;20029;-75
2024/01/30 10:19:36;;;;;;;9.57;2.50;;;10.10;99.90;;;;;;5046821;28;20021;-75
2024/01/30 10:22:05;;;;;;;15.32;2.90;;;10.20;99.90;;;;;;5051609;28;20032;-75
2024/01/30 10:24:32;;;;;;;7.70;2.65;;;10.10;99.90;;;;;;5050960;28;20033;-75
2024/01/30 10:26:58;;;;;;;10.90;2.83;;;10.10;99.90;;;;;;5037981;28;20035;-75
2024/01/30 10:29:24;;;;;;;7.38;2.08;;;10.10;99.90;;;;;;5044417;28;20021;-75
2024/01/30 10:32:02;;;;;;;8.18;2.35;;;10.10;99.90;;;;;;5036586;28;20475;-75
2024/01/30 10:34:28;;;;;;;11.23;2.58;;;10.00;99.90;;;;;;5039943;28;20017;-75
2024/01/30 10:37:17;;;;;;;12.25;2.78;;;10.00;99.90;;;;;;5051416;28;20021;-75
2024/01/30 10:39:46;;;;;;;8.95;2.45;;;10.00;99.90;;;;;;5050858;28;20021;-75
2024/01/30 10:42:13;;;;;;;13.95;2.72;;;9.90;99.90;;;;;;5052782;28;20020;-74
2024/01/30 10:44:51;;;;;;;13.60;2.55;;;9.90;99.90;;;;;;5050896;28;20036;-74
2024/01/30 10:47:23;;;;;;;12.25;2.05;;;9.80;99.90;;;;;;5047014;28;20025;-74
2024/01/30 10:49:49;;;;;;;13.93;2.80;;;9.80;99.90;;;;;;5038195;28;20022;-74
2024/01/30 10:52:16;;;;;;;12.75;2.60;;;9.80;99.90;;;;;;5048155;28;20072;-75
2024/01/30 10:54:45;;;;;;;11.93;2.58;;;9.70;99.90;;;;;;5056901;28;20029;-75
2024/01/30 10:57:12;;;;;;;15.68;3.10;;;9.70;99.90;;;;;;5047564;28;20029;-75
2024/01/30 10:59:38;;;;;;;13.90;2.65;;;9.60;99.90;;;;;;5044094;28;20013;-75
2024/01/30 11:02:05;;;;;;;18.27;2.67;;;9.60;99.90;;;;;;5058373;28;20036;-75
2024/01/30 11:04:38;;;;;;;10.98;2.45;;;9.60;99.90;;;;;;5040003;28;20024;-75
2024/01/30 11:07:18;;;;;;;12.88;2.50;;;9.60;99.90;;;;;;5033194;28;20460;-75
2024/01/30 11:09:51;;;;;;;14.05;2.08;;;9.60;99.90;;;;;;5050797;28;20021;-75
2024/01/30 11:12:16;;;;;;;10.95;2.28;;;9.50;99.90;;;;;;5039721;28;20360;-75
2024/01/30 11:14:43;;;;;;;13.88;2.20;;;9.50;99.90;;;;;;5036155;28;20071;-75
2024/01/30 11:17:12;;;;;;;7.13;2.25;;;9.40;99.90;;;;;;5050926;28;20021;-75
2024/01/30 11:19:38;;;;;;;15.93;2.25;;;9.40;99.90;;;;;;5049103;28;20075;-75
2024/01/30 11:22:04;;;;;;;9.27;1.95;;;9.30;99.90;;;;;;5040521;28;20045;-75
2024/01/30 11:24:30;;;;;;;15.25;2.47;;;9.20;99.90;;;;;;5048892;28;20522;-75
2024/01/30 11:26:59;;;;;;;13.45;2.17;;;9.20;99.90;;;;;;5048257;28;20022;-75
2024/01/30 11:29:28;;;;;;;10.07;1.77;;;9.10;99.90;;;;;;5044466;28;20108;-75
2024/01/30 11:31:55;;;;;;;13.85;2.47;;;9.10;99.90;;;;;;5046852;28;20071;-75
2024/01/30 11:34:24;;;;;;;11.93;1.90;;;9.10;99.90;;;;;;5045235;28;20020;-75
2024/01/30 11:36:59;;;;;;;12.60;2.17;;;9.20;99.90;;;;;;5049539;28;20025;-75
2024/01/30 11:39:28;;;;;;;11.32;2.33;;;9.20;99.90;;;;;;5049832;28;20366;-75
2024/01/30 11:41:55;;;;;;;11.70;1.90;;;9.20;99.90;;;;;;5044904;28;20087;-75
2024/01/30 11:44:20;;;;;;;17.23;2.00;;;9.20;99.90;;;;;;5054690;28;20478;-74
2024/01/30 11:46:50;;;;;;;10.65;2.08;;;9.20;99.90;;;;;;5055102;28;20104;-74
2024/01/30 11:49:19;;;;;;;15.63;2.08;;;9.20;99.90;;;;;;5055234;28;20414;-76
2024/01/30 11:51:48;;;;;;;8.40;1.63;;;9.20;99.90;;;;;;5046882;28;20041;-75
2024/01/30 11:54:17;;;;;;;12.43;1.80;;;9.20;99.90;;;;;;5040962;28;20561;-75
2024/01/30 11:56:43;;;;;;;19.48;2.28;;;9.20;99.90;;;;;;5055071;28;20595;-75
2024/01/30 11:59:09;;;;;;;12.13;1.95;;;9.20;99.90;;;;;;5051508;28;20079;-75
2024/01/30 12:01:35;;;;;;;14.20;2.25;;;9.10;99.90;;;;;;5054322;28;20044;-74
2024/01/30 12:04:00;;;;;;;12.50;2.58;;;9.20;99.90;;;;;;5053747;28;20033;-74
2024/01/30 12:06:26;;;;;;;15.13;1.98;;;9.10;99.90;;;;;;5050000;28;20017;-75
2024/01/30 12:09:08;;;;;;;14.20;2.63;;;9.10;99.90;;;;;;5049836;28;20028;-75
2024/01/30 12:11:44;;;;;;;14.88;2.33;;;9.10;99.90;;;;;;5054215;28;20048;-76
2024/01/30 12:14:10;;;;;;;14.82;1.95;;;9.10;99.90;;;;;;5048973;28;20021;-76
2024/01/30 12:16:35;;;;;;;18.83;2.55;;;9.10;99.90;;;;;;5054784;28;20160;-76
2024/01/30 12:19:01;;;;;;;17.38;2.72;;;9.10;99.90;;;;;;5053269;28;20104;-75
2024/01/30 12:21:28;;;;;;;14.30;1.77;;;9.10;99.90;;;;;;5046543;28;20021;-76
2024/01/30 12:23:54;;;;;;;10.68;1.92;;;9.10;99.90;;;;;;5051159;28;20372;-75
2024/01/30 12:26:21;;;;;;;14.88;2.13;;;9.10;99.90;;;;;;5054279;28;20029;-76
2024/01/30 12:28:50;;;;;;;14.63;2.28;;;9.10;99.90;;;;;;5052600;28;20033;-75
2024/01/30 12:31:16;;;;;;;14.98;2.40;;;9.00;99.90;;;;;;5032770;28;20029;-74
2024/01/30 12:33:41;;;;;;;14.02;2.55;;;8.90;99.90;;;;;;5053601;28;20029;-75